Time;durP1;ratioP1;P1;durP2;ratioP2;P2;SDS_P1;SDS_P2;PMS_P1;PMS_P2;Temp;Humidity;BMP_temperature;BMP_pressure;BME280_temperature;BME280_humidity;BME280_pressure;Samples;Min_cycle;Max_cycle;Signal;HPM_P1;HPM_P2
2021/07/24 00:00:07;;;;;;;4.22;2.83;;;23.80;49.80;;;;;;1474174;40;20029;-61
2021/07/24 00:01:28;;;;;;;3.40;3.10;;;23.80;49.80;;;;;;1474291;40;20042;-62
2021/07/24 00:02:49;;;;;;;4.18;3.30;;;23.70;49.90;;;;;;1475864;40;20186;-62
2021/07/24 00:04:11;;;;;;;3.92;3.38;;;23.70;50.00;;;;;;1473943;40;20173;-62
2021/07/24 00:05:31;;;;;;;3.72;3.10;;;23.70;50.00;;;;;;1476529;40;20028;-61
2021/07/24 00:06:52;;;;;;;4.70;3.53;;;23.70;50.10;;;;;;1475881;40;20385;-61
2021/07/24 00:08:13;;;;;;;3.65;3.30;;;23.70;50.10;;;;;;1474513;40;20044;-62
2021/07/24 00:09:34;;;;;;;4.10;3.70;;;23.70;50.20;;;;;;1475083;40;20437;-61
2021/07/24 00:10:55;;;;;;;3.38;3.08;;;23.70;50.20;;;;;;1475573;40;20030;-61
2021/07/24 00:12:16;;;;;;;5.13;3.30;;;23.70;50.20;;;;;;1474722;40;20037;-62
2021/07/24 00:13:39;;;;;;;3.50;3.00;;;23.60;50.30;;;;;;1476611;40;20029;-61
2021/07/24 00:15:00;;;;;;;4.90;3.45;;;23.60;50.40;;;;;;1475862;40;20026;-61
2021/07/24 00:16:21;;;;;;;5.80;3.40;;;23.60;50.30;;;;;;1476095;40;20034;-61
2021/07/24 00:17:42;;;;;;;3.42;2.95;;;23.60;50.30;;;;;;1477478;40;20069;-61
2021/07/24 00:19:02;;;;;;;3.90;3.50;;;23.60;50.30;;;;;;1476184;40;20041;-61
2021/07/24 00:20:24;;;;;;;3.72;3.42;;;23.60;50.30;;;;;;1474843;40;20026;-61
2021/07/24 00:21:45;;;;;;;3.55;3.00;;;23.60;50.40;;;;;;1477426;40;20041;-61
2021/07/24 00:23:11;;;;;;;4.15;3.40;;;23.50;50.40;;;;;;1476251;40;20069;-61
2021/07/24 00:24:32;;;;;;;4.25;3.53;;;23.50;50.70;;;;;;1477269;40;20041;-61
2021/07/24 00:25:53;;;;;;;8.25;3.53;;;23.50;50.50;;;;;;1477381;40;20118;-61
2021/07/24 00:27:14;;;;;;;4.57;2.78;;;23.50;50.60;;;;;;1475926;40;20312;-61
2021/07/24 00:28:35;;;;;;;4.07;3.67;;;23.50;50.60;;;;;;1471945;40;20026;-61
2021/07/24 00:29:56;;;;;;;3.63;3.33;;;23.50;50.70;;;;;;1474135;40;20043;-61
2021/07/24 00:31:17;;;;;;;4.80;3.05;;;23.40;50.60;;;;;;1475117;40;20034;-62
2021/07/24 00:32:37;;;;;;;4.70;3.53;;;23.50;50.70;;;;;;1475661;40;20037;-61
2021/07/24 00:33:58;;;;;;;3.83;3.45;;;23.40;50.70;;;;;;1473721;40;20052;-60
2021/07/24 00:35:19;;;;;;;4.03;3.42;;;23.40;50.60;;;;;;1477298;40;20379;-60
2021/07/24 00:36:40;;;;;;;3.50;3.20;;;23.40;50.70;;;;;;1475325;40;20359;-60
2021/07/24 00:38:02;;;;;;;3.10;2.80;;;23.40;50.80;;;;;;1477784;40;20026;-60
2021/07/24 00:39:23;;;;;;;4.50;3.55;;;23.40;50.90;;;;;;1477651;40;20033;-60
2021/07/24 00:40:51;;;;;;;4.40;3.53;;;23.40;50.90;;;;;;1475113;40;20037;-60
2021/07/24 00:42:19;;;;;;;4.55;3.50;;;23.30;51.10;;;;;;1477240;40;20262;-60
2021/07/24 00:43:43;;;;;;;3.88;3.53;;;23.40;51.20;;;;;;1476093;40;20026;-60
2021/07/24 00:45:07;;;;;;;5.15;3.88;;;23.30;51.00;;;;;;1474780;40;20029;-60
2021/07/24 00:46:30;;;;;;;5.30;3.88;;;23.30;51.10;;;;;;1475159;40;20041;-61
2021/07/24 00:47:58;;;;;;;4.07;3.45;;;23.30;51.20;;;;;;1472798;40;20041;-60
2021/07/24 00:49:21;;;;;;;4.15;3.00;;;23.30;51.50;;;;;;1473841;40;20036;-60
2021/07/24 00:50:47;;;;;;;3.75;3.45;;;23.30;51.10;;;;;;1474322;40;20355;-60
2021/07/24 00:52:08;;;;;;;4.38;3.97;;;23.30;51.30;;;;;;1476655;40;20029;-60
2021/07/24 00:53:36;;;;;;;4.10;3.70;;;23.20;51.20;;;;;;1476809;40;20560;-60
2021/07/24 00:54:58;;;;;;;4.88;3.78;;;23.20;51.30;;;;;;1477961;40;20044;-60
2021/07/24 00:56:19;;;;;;;4.35;3.92;;;23.20;51.30;;;;;;1475788;40;20115;-61
2021/07/24 00:57:41;;;;;;;5.97;3.70;;;23.20;51.30;;;;;;1477356;40;20309;-60
2021/07/24 00:59:02;;;;;;;3.90;3.50;;;23.20;51.40;;;;;;1477377;40;20026;-61
2021/07/24 01:00:23;;;;;;;4.82;3.95;;;23.10;51.30;;;;;;1474962;40;20038;-60
2021/07/24 01:01:46;;;;;;;7.00;4.03;;;23.10;51.40;;;;;;1474543;40;20347;-60
2021/07/24 01:03:06;;;;;;;4.65;3.67;;;23.10;51.40;;;;;;1475532;40;20022;-60
2021/07/24 01:04:27;;;;;;;4.15;3.72;;;23.10;51.50;;;;;;1475339;40;20045;-61
2021/07/24 01:05:56;;;;;;;5.95;3.67;;;23.10;51.70;;;;;;1476367;40;20147;-60
2021/07/24 01:07:17;;;;;;;4.10;3.70;;;23.10;52.00;;;;;;1476758;40;20032;-61
2021/07/24 01:08:38;;;;;;;3.80;3.38;;;23.10;51.70;;;;;;1475782;40;20068;-60
2021/07/24 01:09:59;;;;;;;3.58;3.28;;;23.00;51.70;;;;;;1477388;40;20060;-61
2021/07/24 01:11:20;;;;;;;4.68;3.42;;;23.00;51.70;;;;;;1475704;40;20026;-60
2021/07/24 01:12:41;;;;;;;4.13;3.72;;;23.00;51.70;;;;;;1475005;40;20034;-61
2021/07/24 01:14:02;;;;;;;5.80;3.60;;;23.00;51.80;;;;;;1475403;40;20025;-60
2021/07/24 01:15:23;;;;;;;4.95;3.45;;;23.00;52.00;;;;;;1475875;40;20061;-60
2021/07/24 01:16:45;;;;;;;4.82;3.83;;;23.00;52.20;;;;;;1473987;40;20044;-60
2021/07/24 01:18:06;;;;;;;4.25;3.63;;;23.00;52.30;;;;;;1474863;40;20163;-60
2021/07/24 01:19:27;;;;;;;3.67;3.38;;;23.00;52.40;;;;;;1476296;40;20039;-61
2021/07/24 01:20:51;;;;;;;5.40;4.22;;;22.90;52.30;;;;;;1477121;40;20041;-60
2021/07/24 01:22:12;;;;;;;5.32;4.07;;;22.90;52.50;;;;;;1475842;40;20405;-60
2021/07/24 01:23:34;;;;;;;7.18;4.25;;;22.90;52.50;;;;;;1476215;40;20062;-60
2021/07/24 01:24:55;;;;;;;4.32;3.92;;;22.90;52.50;;;;;;1474864;40;20033;-61
2021/07/24 01:26:26;;;;;;;4.75;4.20;;;22.90;52.60;;;;;;1475658;40;20149;-59
2021/07/24 01:27:47;;;;;;;4.78;3.92;;;22.80;52.90;;;;;;1477755;40;20345;-60
2021/07/24 01:29:16;;;;;;;4.38;3.97;;;22.80;52.40;;;;;;1475300;40;20029;-60
2021/07/24 01:30:37;;;;;;;4.15;3.75;;;22.80;52.70;;;;;;1476572;40;20031;-61
2021/07/24 01:31:57;;;;;;;4.40;4.00;;;22.80;52.40;;;;;;1473847;40;20017;-60
2021/07/24 01:33:19;;;;;;;5.57;3.90;;;22.80;52.60;;;;;;1475635;40;20653;-60
2021/07/24 01:34:44;;;;;;;5.53;4.43;;;22.80;52.70;;;;;;1474286;40;20046;-60
2021/07/24 01:36:05;;;;;;;6.25;4.78;;;22.80;53.10;;;;;;1475240;40;20029;-60
2021/07/24 01:37:25;;;;;;;5.93;4.03;;;22.80;52.90;;;;;;1477943;40;20029;-60
2021/07/24 01:38:46;;;;;;;4.82;4.35;;;22.70;53.00;;;;;;1474616;40;20037;-61
2021/07/24 01:40:08;;;;;;;4.20;3.80;;;22.70;53.00;;;;;;1475334;40;20033;-60
2021/07/24 01:41:29;;;;;;;7.13;4.28;;;22.70;53.00;;;;;;1474875;40;20029;-60
2021/07/24 01:42:50;;;;;;;4.85;4.18;;;22.70;53.10;;;;;;1475518;40;20042;-60
2021/07/24 01:44:12;;;;;;;5.10;3.70;;;22.70;53.10;;;;;;1476863;40;20077;-60
2021/07/24 01:45:33;;;;;;;4.65;3.90;;;22.70;53.20;;;;;;1476708;40;20037;-60
2021/07/24 01:46:54;;;;;;;6.65;4.38;;;22.70;53.30;;;;;;1477324;40;20440;-60
2021/07/24 01:48:18;;;;;;;4.43;4.00;;;22.70;53.30;;;;;;1475670;40;20065;-60
2021/07/24 01:53:07;;;;;;;4.32;3.67;;;22.60;53.30;;;;;;1474303;40;20040;-60
2021/07/24 01:54:32;;;;;;;5.53;4.20;;;22.60;53.10;;;;;;1476427;40;20263;-60
2021/07/24 01:55:59;;;;;;;6.80;3.95;;;22.60;53.50;;;;;;1474628;40;20014;-60
2021/07/24 01:57:22;;;;;;;4.07;3.67;;;22.60;53.60;;;;;;1476031;40;20063;-60
2021/07/24 01:58:43;;;;;;;4.25;3.65;;;22.60;53.60;;;;;;1476597;40;20059;-60
2021/07/24 02:00:11;;;;;;;4.25;3.75;;;22.60;53.60;;;;;;1475423;40;20060;-60
2021/07/24 02:01:32;;;;;;;4.75;3.67;;;22.50;53.90;;;;;;1476815;40;20449;-60
2021/07/24 02:02:58;;;;;;;4.25;3.83;;;22.50;53.60;;;;;;1475601;40;20037;-60
2021/07/24 02:04:21;;;;;;;4.72;3.92;;;22.50;54.00;;;;;;1474089;40;20033;-60
2021/07/24 02:05:49;;;;;;;5.05;4.20;;;22.50;54.00;;;;;;1477032;40;20134;-60
2021/07/24 02:07:11;;;;;;;4.20;3.63;;;22.40;54.20;;;;;;1476123;40;20423;-60
2021/07/24 02:08:34;;;;;;;3.78;3.47;;;22.40;53.90;;;;;;1474621;40;20025;-60
2021/07/24 02:09:55;;;;;;;4.72;3.72;;;22.40;53.90;;;;;;1475533;40;20378;-60
2021/07/24 02:11:17;;;;;;;5.03;3.85;;;22.40;54.00;;;;;;1477032;40;20060;-60
2021/07/24 02:12:38;;;;;;;6.45;4.55;;;22.40;54.10;;;;;;1477267;40;20025;-61
2021/07/24 02:13:59;;;;;;;6.28;4.13;;;22.40;54.10;;;;;;1476679;40;20034;-60
2021/07/24 02:15:20;;;;;;;4.97;4.20;;;22.40;54.20;;;;;;1477780;40;20029;-60
2021/07/24 02:16:41;;;;;;;4.57;3.85;;;22.40;54.40;;;;;;1475551;40;20138;-60
2021/07/24 02:18:03;;;;;;;4.35;3.95;;;22.30;54.30;;;;;;1472698;40;20034;-60
2021/07/24 02:19:24;;;;;;;4.53;4.07;;;22.30;54.40;;;;;;1473256;40;20033;-60
2021/07/24 02:20:45;;;;;;;4.30;3.90;;;22.30;54.40;;;;;;1476281;40;20041;-60
2021/07/24 02:22:06;;;;;;;5.20;4.00;;;22.30;54.50;;;;;;1477281;40;20032;-60
2021/07/24 02:23:28;;;;;;;5.07;4.43;;;22.30;54.60;;;;;;1475715;40;20038;-60
2021/07/24 02:24:49;;;;;;;4.95;4.28;;;22.30;54.60;;;;;;1475881;40;20122;-60
2021/07/24 02:26:12;;;;;;;5.18;4.28;;;22.30;55.10;;;;;;1474434;40;20025;-60
2021/07/24 02:27:33;;;;;;;4.45;4.05;;;22.30;54.50;;;;;;1476876;40;20053;-60
2021/07/24 02:28:54;;;;;;;4.53;4.07;;;22.20;54.50;;;;;;1474892;40;20037;-60
2021/07/24 02:30:16;;;;;;;5.47;4.65;;;22.20;54.60;;;;;;1474976;40;20354;-60
2021/07/24 02:31:37;;;;;;;4.75;4.25;;;22.20;54.80;;;;;;1476425;40;20029;-60
2021/07/24 02:32:58;;;;;;;5.65;4.40;;;22.20;54.70;;;;;;1475510;40;20030;-61
2021/07/24 02:34:18;;;;;;;4.57;4.05;;;22.20;54.80;;;;;;1474308;40;20037;-60
2021/07/24 02:35:39;;;;;;;5.35;4.57;;;22.20;54.90;;;;;;1476887;40;20040;-60
2021/07/24 02:37:00;;;;;;;4.38;3.97;;;22.20;55.00;;;;;;1473318;40;20025;-60
2021/07/24 02:38:21;;;;;;;4.50;4.10;;;22.20;55.00;;;;;;1476342;40;20134;-60
2021/07/24 02:39:42;;;;;;;4.53;3.97;;;22.20;55.00;;;;;;1476572;40;20397;-60
2021/07/24 02:41:04;;;;;;;6.22;4.50;;;22.20;55.00;;;;;;1474777;40;20037;-60
2021/07/24 02:42:25;;;;;;;7.30;4.68;;;22.10;55.00;;;;;;1477960;40;20041;-60
2021/07/24 02:43:46;;;;;;;5.90;4.72;;;22.20;55.10;;;;;;1475682;40;20026;-60
2021/07/24 02:45:08;;;;;;;8.00;4.80;;;22.10;55.20;;;;;;1476538;40;20119;-60
2021/07/24 02:46:29;;;;;;;5.78;4.80;;;22.10;55.30;;;;;;1475778;40;20382;-60
2021/07/24 02:47:50;;;;;;;7.82;4.75;;;22.10;55.30;;;;;;1475898;40;20138;-60
2021/07/24 02:49:12;;;;;;;7.97;4.53;;;22.10;55.30;;;;;;1475161;40;20033;-60
2021/07/24 02:50:33;;;;;;;6.72;4.95;;;22.10;55.30;;;;;;1476591;40;20033;-60
2021/07/24 02:51:53;;;;;;;5.63;4.82;;;22.10;55.30;;;;;;1476458;40;20040;-61
2021/07/24 02:53:14;;;;;;;5.50;4.43;;;22.10;55.30;;;;;;1474409;40;20018;-60
2021/07/24 02:54:36;;;;;;;4.70;4.20;;;22.00;55.30;;;;;;1475045;40;20561;-60
2021/07/24 02:55:56;;;;;;;4.82;4.32;;;22.00;55.40;;;;;;1476305;40;20021;-60
2021/07/24 02:57:17;;;;;;;5.50;4.82;;;22.00;55.50;;;;;;1476469;40;20075;-60
2021/07/24 02:58:38;;;;;;;6.00;5.22;;;22.00;55.50;;;;;;1476315;40;20026;-60
2021/07/24 02:59:59;;;;;;;5.43;4.80;;;22.00;55.60;;;;;;1476015;40;20032;-61
2021/07/24 03:01:20;;;;;;;6.40;5.30;;;22.00;55.70;;;;;;1476568;40;20040;-60
2021/07/24 03:02:41;;;;;;;5.95;4.93;;;22.00;55.70;;;;;;1476287;40;20057;-60
2021/07/24 03:04:02;;;;;;;5.63;5.13;;;22.00;55.70;;;;;;1475030;40;20037;-60
2021/07/24 03:05:23;;;;;;;5.65;4.63;;;22.00;55.80;;;;;;1474551;40;20030;-60
2021/07/24 03:06:44;;;;;;;5.68;5.18;;;21.90;55.80;;;;;;1475753;40;20033;-60
2021/07/24 03:08:05;;;;;;;4.95;4.53;;;21.90;55.90;;;;;;1476257;40;20032;-60
2021/07/24 03:09:25;;;;;;;7.18;5.10;;;21.90;55.90;;;;;;1474783;40;20036;-60
2021/07/24 03:10:46;;;;;;;4.93;4.43;;;21.90;56.00;;;;;;1476087;40;20128;-62
2021/07/24 03:12:08;;;;;;;5.20;4.70;;;21.90;56.00;;;;;;1471775;40;20038;-60
2021/07/24 03:13:29;;;;;;;5.60;4.45;;;21.90;56.00;;;;;;1472981;40;20040;-61
2021/07/24 03:14:50;;;;;;;5.70;4.53;;;21.90;56.10;;;;;;1474693;40;20026;-60
2021/07/24 03:16:11;;;;;;;6.60;4.43;;;21.90;56.10;;;;;;1475413;40;20087;-60
2021/07/24 03:17:32;;;;;;;5.13;4.03;;;21.90;56.20;;;;;;1477531;40;20140;-60
2021/07/24 03:18:52;;;;;;;5.55;4.75;;;21.90;56.20;;;;;;1473405;40;20036;-60
2021/07/24 03:20:14;;;;;;;6.85;5.38;;;21.90;56.30;;;;;;1475390;40;20037;-60
2021/07/24 03:21:35;;;;;;;6.95;4.72;;;21.80;56.30;;;;;;1474904;40;20040;-61
2021/07/24 03:22:59;;;;;;;5.25;4.57;;;21.90;56.40;;;;;;1476627;40;20029;-60
2021/07/24 03:24:20;;;;;;;5.28;4.75;;;21.80;56.40;;;;;;1473355;40;20078;-60
2021/07/24 03:25:42;;;;;;;6.68;5.32;;;21.90;56.40;;;;;;1474967;40;20611;-60
2021/07/24 03:27:03;;;;;;;8.30;5.25;;;21.80;56.50;;;;;;1475936;40;20022;-61
2021/07/24 03:28:24;;;;;;;6.15;5.13;;;21.80;56.50;;;;;;1475522;40;20037;-60
2021/07/24 03:29:47;;;;;;;5.60;5.10;;;21.80;56.50;;;;;;1476143;40;20045;-61
2021/07/24 03:31:08;;;;;;;7.50;5.75;;;21.80;56.60;;;;;;1474643;40;20041;-60
2021/07/24 03:32:29;;;;;;;6.10;5.38;;;21.80;56.70;;;;;;1475285;40;20384;-60
2021/07/24 03:33:50;;;;;;;7.55;5.70;;;21.80;56.70;;;;;;1477785;40;20048;-60
2021/07/24 03:35:11;;;;;;;6.85;5.28;;;21.80;56.90;;;;;;1474634;40;20455;-60
2021/07/24 03:36:32;;;;;;;7.88;5.72;;;21.80;57.00;;;;;;1476229;40;20240;-60
2021/07/24 03:37:53;;;;;;;7.50;5.85;;;21.80;57.00;;;;;;1476990;40;20021;-60
2021/07/24 03:39:13;;;;;;;7.22;5.50;;;21.80;57.10;;;;;;1473922;40;20481;-60
2021/07/24 03:40:36;;;;;;;6.82;5.07;;;21.80;57.00;;;;;;1476710;40;20032;-60
2021/07/24 03:41:57;;;;;;;5.25;4.70;;;21.80;57.20;;;;;;1475679;40;20022;-60
2021/07/24 03:43:18;;;;;;;6.63;5.93;;;21.80;57.10;;;;;;1475013;40;20029;-60
2021/07/24 03:44:39;;;;;;;7.68;5.90;;;21.80;57.20;;;;;;1475362;40;20402;-61
2021/07/24 03:45:59;;;;;;;7.40;5.40;;;21.80;57.20;;;;;;1475446;40;20029;-60
2021/07/24 03:47:20;;;;;;;5.13;4.63;;;21.80;57.20;;;;;;1477412;40;20040;-60
2021/07/24 03:48:42;;;;;;;5.78;5.28;;;21.80;57.20;;;;;;1475200;40;20733;-60
2021/07/24 03:50:04;;;;;;;7.13;5.32;;;21.80;57.30;;;;;;1473165;40;20044;-60
2021/07/24 03:51:24;;;;;;;5.82;5.25;;;21.80;57.20;;;;;;1474667;40;20026;-60
2021/07/24 03:52:45;;;;;;;6.55;5.07;;;21.80;57.20;;;;;;1472426;40;20045;-60
2021/07/24 03:54:06;;;;;;;6.72;5.68;;;21.80;57.30;;;;;;1473362;40;20394;-60
2021/07/24 03:55:28;;;;;;;8.75;5.32;;;21.90;57.60;;;;;;1473521;40;20029;-60
2021/07/24 03:56:48;;;;;;;4.97;4.43;;;21.80;57.50;;;;;;1476920;40;20437;-60
2021/07/24 03:58:10;;;;;;;6.15;5.20;;;21.80;57.50;;;;;;1476147;40;20075;-60
2021/07/24 03:59:31;;;;;;;8.15;5.75;;;21.80;57.40;;;;;;1476673;40;20034;-60
2021/07/24 04:00:52;;;;;;;5.60;5.00;;;21.90;57.60;;;;;;1476788;40;20025;-60
2021/07/24 04:02:18;;;;;;;6.30;5.32;;;21.90;57.60;;;;;;1476301;40;20040;-60
2021/07/24 04:03:39;;;;;;;6.82;5.00;;;21.80;57.60;;;;;;1478071;40;20164;-61
2021/07/24 04:05:01;;;;;;;7.30;5.90;;;21.90;57.70;;;;;;1476696;40;20026;-60
2021/07/24 04:06:27;;;;;;;7.00;5.93;;;21.90;57.80;;;;;;1476243;40;20032;-60
2021/07/24 04:07:47;;;;;;;6.47;5.32;;;21.90;57.80;;;;;;1477162;40;20040;-60
2021/07/24 04:09:08;;;;;;;7.35;5.57;;;21.90;57.60;;;;;;1477442;40;20274;-60
2021/07/24 04:10:29;;;;;;;6.85;6.05;;;21.90;57.70;;;;;;1475965;40;20049;-60
2021/07/24 04:11:50;;;;;;;6.78;5.78;;;21.90;57.80;;;;;;1475738;40;20037;-60
2021/07/24 04:13:12;;;;;;;6.07;5.47;;;21.90;57.70;;;;;;1475605;40;20031;-60
2021/07/24 04:14:33;;;;;;;6.68;5.53;;;21.90;57.80;;;;;;1475704;40;20041;-60
2021/07/24 04:15:54;;;;;;;6.70;6.00;;;21.90;57.70;;;;;;1475364;40;20033;-61
2021/07/24 04:17:15;;;;;;;5.85;5.07;;;21.90;57.70;;;;;;1474926;40;20040;-61
2021/07/24 04:18:37;;;;;;;8.23;5.63;;;21.90;58.20;;;;;;1477620;40;20029;-60
2021/07/24 04:19:58;;;;;;;6.85;5.95;;;21.90;57.60;;;;;;1475926;40;20033;-60
2021/07/24 04:21:20;;;;;;;6.97;5.20;;;21.90;57.70;;;;;;1475243;40;20025;-60
2021/07/24 04:22:41;;;;;;;7.97;5.47;;;21.90;57.70;;;;;;1478072;40;20095;-60
2021/07/24 04:24:02;;;;;;;6.07;5.43;;;21.90;57.60;;;;;;1476659;40;20149;-61
2021/07/24 04:25:23;;;;;;;5.75;4.60;;;21.90;57.60;;;;;;1475269;40;20022;-60
2021/07/24 04:26:44;;;;;;;6.70;5.07;;;21.90;57.70;;;;;;1476913;40;20033;-60
2021/07/24 04:28:05;;;;;;;5.88;5.10;;;21.90;57.60;;;;;;1477261;40;20406;-60
2021/07/24 04:29:26;;;;;;;7.93;5.65;;;21.90;57.70;;;;;;1477739;40;20051;-60
2021/07/24 04:30:47;;;;;;;7.68;5.22;;;21.90;57.70;;;;;;1475407;40;20061;-60
2021/07/24 04:32:08;;;;;;;6.35;5.03;;;21.90;57.70;;;;;;1476445;40;20033;-60
2021/07/24 04:33:29;;;;;;;5.15;4.65;;;21.90;57.80;;;;;;1476306;40;20072;-59
2021/07/24 04:34:49;;;;;;;5.40;4.90;;;21.90;57.80;;;;;;1476916;40;20033;-61
2021/07/24 04:36:14;;;;;;;6.05;4.55;;;21.90;57.80;;;;;;1474682;40;20022;-62
2021/07/24 04:37:35;;;;;;;6.85;5.47;;;21.90;57.80;;;;;;1477003;40;20038;-62
2021/07/24 04:38:56;;;;;;;7.15;5.18;;;21.90;57.80;;;;;;1474885;40;20032;-59
2021/07/24 04:40:17;;;;;;;7.13;5.05;;;21.90;57.90;;;;;;1474706;40;20034;-62
2021/07/24 04:41:38;;;;;;;5.07;4.30;;;21.90;58.00;;;;;;1477020;40;20029;-61
2021/07/24 04:42:59;;;;;;;5.63;4.88;;;21.90;58.10;;;;;;1473695;40;20037;-61
2021/07/24 04:44:19;;;;;;;5.10;4.50;;;21.90;58.10;;;;;;1475509;40;20114;-61
2021/07/24 04:45:44;;;;;;;4.57;4.18;;;21.90;58.20;;;;;;1476546;40;20033;-62
2021/07/24 04:47:05;;;;;;;5.15;4.68;;;21.90;58.50;;;;;;1476652;40;20033;-61
2021/07/24 04:48:26;;;;;;;5.05;4.50;;;21.90;58.40;;;;;;1475656;40;20030;-61
2021/07/24 04:49:51;;;;;;;5.03;4.53;;;21.90;58.90;;;;;;1475335;40;20028;-62
2021/07/24 04:51:15;;;;;;;6.43;4.50;;;21.90;58.70;;;;;;1475696;40;20354;-62
2021/07/24 04:52:37;;;;;;;5.30;4.25;;;21.90;58.60;;;;;;1476510;40;20359;-62
2021/07/24 04:53:57;;;;;;;5.47;4.68;;;21.90;58.60;;;;;;1476714;40;20032;-61
2021/07/24 04:55:19;;;;;;;6.32;4.72;;;21.90;58.60;;;;;;1475205;40;20051;-61
2021/07/24 04:56:40;;;;;;;6.93;4.78;;;21.90;58.70;;;;;;1474009;40;20033;-61
2021/07/24 04:58:02;;;;;;;6.13;5.25;;;21.90;58.60;;;;;;1474337;40;20117;-61
2021/07/24 04:59:22;;;;;;;4.93;4.50;;;22.00;58.70;;;;;;1476280;40;20034;-61
2021/07/24 05:00:45;;;;;;;5.72;5.13;;;21.90;58.70;;;;;;1475755;40;20115;-61
2021/07/24 05:02:06;;;;;;;6.10;5.20;;;22.00;58.90;;;;;;1475483;40;20084;-61
2021/07/24 05:03:27;;;;;;;5.72;5.20;;;22.00;58.80;;;;;;1476802;40;20066;-61
2021/07/24 05:04:49;;;;;;;5.90;5.00;;;22.00;58.80;;;;;;1476724;40;20029;-61
2021/07/24 05:06:10;;;;;;;6.38;5.00;;;22.00;58.90;;;;;;1475608;40;20034;-61
2021/07/24 05:07:32;;;;;;;7.30;5.45;;;22.00;59.00;;;;;;1476809;40;20030;-61
2021/07/24 05:08:53;;;;;;;6.38;5.38;;;22.10;59.00;;;;;;1476983;40;20086;-62
2021/07/24 05:10:14;;;;;;;6.53;5.75;;;22.10;58.90;;;;;;1475034;40;20034;-61
2021/07/24 05:11:35;;;;;;;5.55;5.05;;;22.10;58.80;;;;;;1477941;40;20029;-61
2021/07/24 05:12:56;;;;;;;5.28;4.78;;;22.10;58.70;;;;;;1477358;40;20036;-61
2021/07/24 05:14:17;;;;;;;5.43;4.38;;;22.10;58.70;;;;;;1475648;40;20022;-61
2021/07/24 05:15:38;;;;;;;7.43;5.50;;;22.10;58.80;;;;;;1475595;40;20033;-61
2021/07/24 05:17:06;;;;;;;6.10;5.47;;;22.10;59.40;;;;;;1477083;40;20017;-61
2021/07/24 05:18:27;;;;;;;6.75;5.35;;;22.20;59.20;;;;;;1475060;40;20040;-61
2021/07/24 05:19:48;;;;;;;6.90;5.75;;;22.20;59.00;;;;;;1477278;40;20030;-61
2021/07/24 05:21:15;;;;;;;5.93;5.25;;;22.20;59.10;;;;;;1476415;40;20034;-61
2021/07/24 05:22:36;;;;;;;5.72;5.10;;;22.20;59.20;;;;;;1476384;40;20080;-61
2021/07/24 05:23:56;;;;;;;5.88;5.28;;;22.20;59.00;;;;;;1474667;40;20022;-61
2021/07/24 05:25:18;;;;;;;5.18;4.68;;;22.20;59.10;;;;;;1474732;40;20645;-61
2021/07/24 05:26:39;;;;;;;7.55;5.60;;;22.30;59.10;;;;;;1477935;40;20029;-61
2021/07/24 05:28:00;;;;;;;5.60;4.95;;;22.30;59.10;;;;;;1474042;40;20037;-61
2021/07/24 05:29:20;;;;;;;6.18;5.57;;;22.30;59.10;;;;;;1476376;40;20040;-61
2021/07/24 05:30:41;;;;;;;5.93;5.32;;;22.30;59.10;;;;;;1476214;40;20407;-61
2021/07/24 05:32:03;;;;;;;8.48;5.13;;;22.30;59.00;;;;;;1475200;40;20028;-61
2021/07/24 05:33:23;;;;;;;6.38;5.03;;;22.30;59.00;;;;;;1475899;40;20034;-62
2021/07/24 05:34:44;;;;;;;6.25;5.65;;;22.30;59.10;;;;;;1474449;40;20045;-61
2021/07/24 05:36:05;;;;;;;8.68;5.57;;;22.40;59.10;;;;;;1470186;40;20115;-61
2021/07/24 05:37:27;;;;;;;6.47;5.53;;;22.40;59.20;;;;;;1474997;40;20058;-61
2021/07/24 05:38:47;;;;;;;5.40;4.90;;;22.40;59.10;;;;;;1471916;40;20030;-61
2021/07/24 05:40:09;;;;;;;6.97;5.70;;;22.40;59.20;;;;;;1474148;40;20127;-61
2021/07/24 05:41:30;;;;;;;5.97;5.38;;;22.40;59.10;;;;;;1474945;40;20101;-61
2021/07/24 05:42:51;;;;;;;6.32;5.35;;;22.40;59.00;;;;;;1477611;40;20250;-61
2021/07/24 05:44:13;;;;;;;6.45;4.97;;;22.40;59.00;;;;;;1475107;40;20037;-61
2021/07/24 05:45:34;;;;;;;6.65;5.05;;;22.40;59.20;;;;;;1475943;40;20034;-61
2021/07/24 05:46:58;;;;;;;5.40;4.80;;;22.50;59.30;;;;;;1475628;40;20044;-61
2021/07/24 05:48:19;;;;;;;6.15;5.20;;;22.50;59.30;;;;;;1474582;40;20065;-61
2021/07/24 05:49:40;;;;;;;7.25;5.70;;;22.50;59.30;;;;;;1476564;40;20516;-61
2021/07/24 05:51:06;;;;;;;6.95;6.13;;;22.50;59.30;;;;;;1475489;40;20312;-62
2021/07/24 05:52:27;;;;;;;7.18;5.47;;;22.50;59.40;;;;;;1475882;40;20047;-61
2021/07/24 05:53:48;;;;;;;5.63;5.07;;;22.60;59.40;;;;;;1477296;40;20028;-61
2021/07/24 05:55:09;;;;;;;9.73;5.78;;;22.60;59.50;;;;;;1474381;40;20018;-61
2021/07/24 05:56:30;;;;;;;8.38;5.85;;;22.60;59.60;;;;;;1476591;40;20041;-61
2021/07/24 05:57:51;;;;;;;8.55;5.95;;;22.70;59.70;;;;;;1476512;40;20032;-61
2021/07/24 05:59:12;;;;;;;9.32;6.05;;;22.70;59.70;;;;;;1472791;40;20026;-61
2021/07/24 06:00:33;;;;;;;7.43;5.40;;;22.60;59.70;;;;;;1475318;40;20136;-61
2021/07/24 06:01:54;;;;;;;9.70;5.35;;;22.70;59.60;;;;;;1476787;40;20033;-61
2021/07/24 06:03:15;;;;;;;6.50;5.50;;;22.70;59.60;;;;;;1475368;40;20026;-61
2021/07/24 06:04:36;;;;;;;7.75;6.40;;;22.80;59.80;;;;;;1476923;40;20033;-62
2021/07/24 06:05:56;;;;;;;8.75;6.20;;;22.80;59.60;;;;;;1477828;40;20067;-61
2021/07/24 06:07:17;;;;;;;7.40;6.50;;;22.80;59.50;;;;;;1477667;40;20029;-61
2021/07/24 06:08:38;;;;;;;7.57;6.10;;;22.80;59.30;;;;;;1476758;40;20044;-61
2021/07/24 06:09:59;;;;;;;10.93;6.70;;;22.90;59.30;;;;;;1475656;40;20342;-61
2021/07/24 06:11:20;;;;;;;7.90;7.00;;;22.90;59.30;;;;;;1475182;40;20038;-61
2021/07/24 06:12:41;;;;;;;7.55;6.43;;;22.90;59.40;;;;;;1475114;40;20391;-61
2021/07/24 06:14:02;;;;;;;7.70;6.53;;;22.90;59.30;;;;;;1475733;40;20218;-61
2021/07/24 06:15:23;;;;;;;10.05;6.45;;;23.00;59.20;;;;;;1475446;40;20030;-61
2021/07/24 06:16:43;;;;;;;9.73;7.03;;;23.00;59.20;;;;;;1476204;40;20033;-61
2021/07/24 06:18:04;;;;;;;7.78;6.10;;;23.00;59.20;;;;;;1475181;40;20104;-61
2021/07/24 06:19:25;;;;;;;8.02;5.47;;;23.00;59.70;;;;;;1475172;40;20032;-61
2021/07/24 06:20:47;;;;;;;9.02;7.20;;;23.10;59.20;;;;;;1475338;40;20126;-61
2021/07/24 06:22:08;;;;;;;8.45;6.80;;;23.10;59.20;;;;;;1474929;40;20026;-61
2021/07/24 06:23:29;;;;;;;8.05;6.78;;;23.10;59.30;;;;;;1475385;40;20041;-61
2021/07/24 06:24:50;;;;;;;6.03;5.43;;;23.20;59.30;;;;;;1477510;40;20040;-61
2021/07/24 06:26:11;;;;;;;8.00;6.30;;;23.20;59.30;;;;;;1474369;40;20063;-61
2021/07/24 06:27:31;;;;;;;9.00;6.25;;;23.20;59.20;;;;;;1476744;40;20075;-61
2021/07/24 06:28:52;;;;;;;13.15;6.07;;;23.20;59.30;;;;;;1475641;40;20370;-61
2021/07/24 06:30:13;;;;;;;7.57;6.60;;;23.20;59.30;;;;;;1475536;40;20443;-61
2021/07/24 06:31:37;;;;;;;9.98;6.55;;;23.30;59.20;;;;;;1476068;40;20517;-61
2021/07/24 06:32:58;;;;;;;8.23;6.95;;;23.30;59.20;;;;;;1477415;40;20054;-61
2021/07/24 06:34:19;;;;;;;7.50;5.93;;;23.30;59.20;;;;;;1476226;40;20041;-61
2021/07/24 06:35:40;;;;;;;9.05;6.53;;;23.30;59.30;;;;;;1476855;40;20085;-61
2021/07/24 06:37:01;;;;;;;9.70;6.43;;;23.30;59.20;;;;;;1477823;40;20358;-61
2021/07/24 06:38:22;;;;;;;9.77;6.47;;;23.40;59.10;;;;;;1474840;40;20045;-61
2021/07/24 06:39:43;;;;;;;7.35;6.50;;;23.40;59.00;;;;;;1476121;40;20033;-61
2021/07/24 06:41:05;;;;;;;8.18;7.03;;;23.40;59.00;;;;;;1475028;40;20086;-61
2021/07/24 06:42:26;;;;;;;7.20;6.20;;;23.40;58.90;;;;;;1475022;40;20033;-61
2021/07/24 06:43:47;;;;;;;9.68;6.13;;;23.50;59.00;;;;;;1474904;40;20049;-61
2021/07/24 06:45:08;;;;;;;7.57;6.10;;;23.50;58.90;;;;;;1475164;40;20368;-61
2021/07/24 06:46:29;;;;;;;8.15;6.15;;;23.50;59.00;;;;;;1475193;40;20150;-61
2021/07/24 06:47:50;;;;;;;8.35;6.68;;;23.50;59.00;;;;;;1475118;40;20028;-61
2021/07/24 06:49:11;;;;;;;6.43;5.70;;;23.60;59.10;;;;;;1475175;40;20045;-61
2021/07/24 06:50:32;;;;;;;7.20;5.90;;;23.60;59.10;;;;;;1470831;40;20029;-61
2021/07/24 06:51:53;;;;;;;7.70;6.25;;;23.60;59.10;;;;;;1475127;40;20044;-61
2021/07/24 06:53:13;;;;;;;7.28;6.30;;;23.60;59.00;;;;;;1476887;40;20034;-61
2021/07/24 06:54:34;;;;;;;7.22;6.53;;;23.60;58.90;;;;;;1475069;40;20053;-61
2021/07/24 06:55:56;;;;;;;8.73;5.90;;;23.70;58.80;;;;;;1475109;40;20034;-61
2021/07/24 06:57:17;;;;;;;10.32;7.47;;;23.70;58.90;;;;;;1478261;40;20293;-61
2021/07/24 06:58:38;;;;;;;6.95;6.25;;;23.70;58.80;;;;;;1477024;40;20292;-61
2021/07/24 06:59:59;;;;;;;7.63;6.82;;;23.70;58.80;;;;;;1476833;40;20039;-61
2021/07/24 07:01:20;;;;;;;7.78;6.63;;;23.70;58.70;;;;;;1475046;40;20317;-61
2021/07/24 07:02:41;;;;;;;7.35;6.57;;;23.70;58.80;;;;;;1476528;40;20041;-61
2021/07/24 07:04:01;;;;;;;9.57;7.40;;;23.80;58.90;;;;;;1475966;40;20362;-61
2021/07/24 07:05:22;;;;;;;7.70;6.88;;;23.80;58.90;;;;;;1475786;40;20081;-61
2021/07/24 07:06:43;;;;;;;7.45;6.40;;;23.80;58.70;;;;;;1475983;40;20030;-61